sensor_id;sensor_type;location;lat;lon;timestamp;pressure;altitude;pressure_sealevel;temperature;humidity
62051;BME280;48008;51.204;6.766;2023-03-19T00:02:02;100694.22;;;11.61;82.68
62051;BME280;48008;51.204;6.766;2023-03-19T00:04:42;100693.91;;;11.64;82.29
62051;BME280;48008;51.204;6.766;2023-03-19T00:07:08;100692.22;;;11.63;82.89
62051;BME280;48008;51.204;6.766;2023-03-19T00:09:35;100698.72;;;11.61;81.74
62051;BME280;48008;51.204;6.766;2023-03-19T00:12:02;100692.06;;;11.65;82.16
62051;BME280;48008;51.204;6.766;2023-03-19T00:14:30;100688.09;;;11.61;81.48
62051;BME280;48008;51.204;6.766;2023-03-19T00:16:57;100687.03;;;11.45;81.76
62051;BME280;48008;51.204;6.766;2023-03-19T00:19:24;100691.88;;;11.50;83.18
62051;BME280;48008;51.204;6.766;2023-03-19T00:21:51;100686.22;;;11.53;82.04
62051;BME280;48008;51.204;6.766;2023-03-19T00:24:19;100688.19;;;11.51;83.26
62051;BME280;48008;51.204;6.766;2023-03-19T00:26:46;100683.91;;;11.50;83.89
62051;BME280;48008;51.204;6.766;2023-03-19T00:29:13;100687.03;;;11.45;82.57
62051;BME280;48008;51.204;6.766;2023-03-19T00:31:40;100682.53;;;11.46;83.12
62051;BME280;48008;51.204;6.766;2023-03-19T00:34:08;100681.19;;;11.33;83.23
62051;BME280;48008;51.204;6.766;2023-03-19T00:36:35;100681.19;;;11.33;83.06
62051;BME280;48008;51.204;6.766;2023-03-19T00:39:03;100675.84;;;11.25;82.89
62051;BME280;48008;51.204;6.766;2023-03-19T00:41:30;100678.13;;;11.20;82.52
62051;BME280;48008;51.204;6.766;2023-03-19T00:43:58;100672.81;;;11.12;83.95
62051;BME280;48008;51.204;6.766;2023-03-19T00:46:27;100691.31;;;11.04;85.15
62051;BME280;48008;51.204;6.766;2023-03-19T00:48:54;100686.59;;;10.89;86.67
62051;BME280;48008;51.204;6.766;2023-03-19T00:51:22;100686.44;;;10.91;86.92
62051;BME280;48008;51.204;6.766;2023-03-19T00:53:50;100690.28;;;10.88;86.05
62051;BME280;48008;51.204;6.766;2023-03-19T00:56:18;100682.91;;;10.82;86.99
62051;BME280;48008;51.204;6.766;2023-03-19T00:58:46;100683.09;;;10.81;86.40
62051;BME280;48008;51.204;6.766;2023-03-19T01:01:15;100680.59;;;10.79;86.47
62051;BME280;48008;51.204;6.766;2023-03-19T01:03:44;100679.06;;;10.76;87.72
62051;BME280;48008;51.204;6.766;2023-03-19T01:06:10;100679.41;;;10.73;87.58
62051;BME280;48008;51.204;6.766;2023-03-19T01:08:37;100678.88;;;10.70;87.04
62051;BME280;48008;51.204;6.766;2023-03-19T01:11:07;100684.88;;;10.72;87.83
62051;BME280;48008;51.204;6.766;2023-03-19T01:13:35;100688.50;;;10.71;87.58
62051;BME280;48008;51.204;6.766;2023-03-19T01:16:03;100685.31;;;10.67;87.92
62051;BME280;48008;51.204;6.766;2023-03-19T01:18:30;100679.81;;;10.61;88.38
62051;BME280;48008;51.204;6.766;2023-03-19T01:20:57;100682.81;;;10.66;86.95
62051;BME280;48008;51.204;6.766;2023-03-19T01:23:26;100679.50;;;10.64;85.89
62051;BME280;48008;51.204;6.766;2023-03-19T01:25:54;100666.38;;;10.62;86.02
62051;BME280;48008;51.204;6.766;2023-03-19T01:28:23;100666.38;;;10.62;87.24
62051;BME280;48008;51.204;6.766;2023-03-19T01:30:50;100671.00;;;10.60;87.13
62051;BME280;48008;51.204;6.766;2023-03-19T01:33:37;100668.34;;;10.60;87.32
62051;BME280;48008;51.204;6.766;2023-03-19T01:36:24;100666.56;;;10.61;85.65
62051;BME280;48008;51.204;6.766;2023-03-19T01:39:06;100666.56;;;10.61;85.28
62051;BME280;48008;51.204;6.766;2023-03-19T01:41:34;100670.34;;;10.58;85.87
62051;BME280;48008;51.204;6.766;2023-03-19T01:44:34;100665.56;;;10.62;85.51
62051;BME280;48008;51.204;6.766;2023-03-19T01:47:29;100658.22;;;10.55;85.63
62051;BME280;48008;51.204;6.766;2023-03-19T01:50:24;100657.03;;;10.50;86.44
62051;BME280;48008;51.204;6.766;2023-03-19T01:53:14;100661.97;;;10.45;86.57
62051;BME280;48008;51.204;6.766;2023-03-19T01:55:48;100668.91;;;10.46;86.75
62051;BME280;48008;51.204;6.766;2023-03-19T01:58:37;100660.25;;;10.35;86.12
62051;BME280;48008;51.204;6.766;2023-03-19T02:01:26;100663.56;;;10.37;85.39
62051;BME280;48008;51.204;6.766;2023-03-19T02:03:55;100664.25;;;10.40;85.64
62051;BME280;48008;51.204;6.766;2023-03-19T02:06:25;100663.09;;;10.42;85.56
62051;BME280;48008;51.204;6.766;2023-03-19T02:08:56;100675.06;;;10.46;85.37
62051;BME280;48008;51.204;6.766;2023-03-19T02:11:24;100669.28;;;10.51;83.86
62051;BME280;48008;51.204;6.766;2023-03-19T02:13:51;100674.28;;;10.54;83.68
62051;BME280;48008;51.204;6.766;2023-03-19T02:16:19;100673.66;;;10.60;84.85
62051;BME280;48008;51.204;6.766;2023-03-19T02:18:46;100667.84;;;10.56;85.37
62051;BME280;48008;51.204;6.766;2023-03-19T02:21:15;100666.03;;;10.57;83.72
62051;BME280;48008;51.204;6.766;2023-03-19T02:24:05;100672.69;;;10.61;83.57
62051;BME280;48008;51.204;6.766;2023-03-19T02:26:54;100663.56;;;10.64;85.06
62051;BME280;48008;51.204;6.766;2023-03-19T02:29:22;100668.72;;;10.65;85.71
62051;BME280;48008;51.204;6.766;2023-03-19T02:31:49;100655.47;;;10.65;85.63
62051;BME280;48008;51.204;6.766;2023-03-19T02:36:59;100662.75;;;10.63;84.52
62051;BME280;48008;51.204;6.766;2023-03-19T02:39:35;100663.56;;;10.64;85.31
62051;BME280;48008;51.204;6.766;2023-03-19T02:42:04;100652.59;;;10.59;85.17
62051;BME280;48008;51.204;6.766;2023-03-19T02:44:31;100653.06;;;10.54;84.68
62051;BME280;48008;51.204;6.766;2023-03-19T02:46:58;100651.16;;;10.64;85.68
62051;BME280;48008;51.204;6.766;2023-03-19T02:49:25;100653.63;;;10.66;85.05
62051;BME280;48008;51.204;6.766;2023-03-19T02:51:51;100658.59;;;10.61;85.22
62051;BME280;48008;51.204;6.766;2023-03-19T02:54:19;100653.28;;;10.61;85.21
62051;BME280;48008;51.204;6.766;2023-03-19T02:56:46;100660.78;;;10.65;85.52
62051;BME280;48008;51.204;6.766;2023-03-19T02:59:14;100659.28;;;10.63;85.38
62051;BME280;48008;51.204;6.766;2023-03-19T03:01:41;100657.00;;;10.68;85.25
62051;BME280;48008;51.204;6.766;2023-03-19T03:04:08;100659.28;;;10.63;85.25
62051;BME280;48008;51.204;6.766;2023-03-19T03:06:34;100657.97;;;10.67;84.57
62051;BME280;48008;51.204;6.766;2023-03-19T03:09:02;100664.44;;;10.64;84.25
62051;BME280;48008;51.204;6.766;2023-03-19T03:11:29;100661.56;;;10.57;84.34
62051;BME280;48008;51.204;6.766;2023-03-19T03:13:55;100664.88;;;10.60;84.63
62051;BME280;48008;51.204;6.766;2023-03-19T03:16:24;100659.94;;;10.65;85.36
62051;BME280;48008;51.204;6.766;2023-03-19T03:18:50;100666.22;;;10.64;83.62
62051;BME280;48008;51.204;6.766;2023-03-19T03:21:18;100662.91;;;10.62;84.33
62051;BME280;48008;51.204;6.766;2023-03-19T03:23:46;100670.06;;;10.69;84.12
62051;BME280;48008;51.204;6.766;2023-03-19T03:26:14;100671.38;;;10.65;84.18
62051;BME280;48008;51.204;6.766;2023-03-19T03:28:40;100672.47;;;10.54;84.04
62051;BME280;48008;51.204;6.766;2023-03-19T03:31:08;100682.00;;;10.65;83.66
62051;BME280;48008;51.204;6.766;2023-03-19T03:33:38;100675.50;;;10.60;85.37
62051;BME280;48008;51.204;6.766;2023-03-19T03:36:05;100676.00;;;10.63;84.46
62051;BME280;48008;51.204;6.766;2023-03-19T03:38:32;100680.91;;;10.50;85.13
62051;BME280;48008;51.204;6.766;2023-03-19T03:41:00;100681.25;;;10.55;85.91
62051;BME280;48008;51.204;6.766;2023-03-19T03:43:26;100680.75;;;10.51;85.37
62051;BME280;48008;51.204;6.766;2023-03-19T03:45:53;100680.56;;;10.53;85.76
62051;BME280;48008;51.204;6.766;2023-03-19T03:48:20;100690.06;;;10.55;85.72
62051;BME280;48008;51.204;6.766;2023-03-19T03:50:48;100688.53;;;10.53;86.38
62051;BME280;48008;51.204;6.766;2023-03-19T03:53:18;100686.75;;;10.53;86.08
62051;BME280;48008;51.204;6.766;2023-03-19T03:55:45;100693.38;;;10.57;85.50
62051;BME280;48008;51.204;6.766;2023-03-19T03:58:13;100695.50;;;10.54;85.27
62051;BME280;48008;51.204;6.766;2023-03-19T04:00:39;100698.31;;;10.52;85.82
62051;BME280;48008;51.204;6.766;2023-03-19T04:03:06;100695.38;;;10.55;85.31
62051;BME280;48008;51.204;6.766;2023-03-19T04:05:33;100697.00;;;10.56;85.40
62051;BME280;48008;51.204;6.766;2023-03-19T04:08:00;100706.03;;;10.64;85.04
62051;BME280;48008;51.204;6.766;2023-03-19T04:10:27;100703.38;;;10.64;85.09
62051;BME280;48008;51.204;6.766;2023-03-19T04:12:53;100699.09;;;10.71;84.28
62051;BME280;48008;51.204;6.766;2023-03-19T04:15:20;100700.16;;;10.78;84.01
62051;BME280;48008;51.204;6.766;2023-03-19T04:17:51;100700.00;;;10.80;84.40
62051;BME280;48008;51.204;6.766;2023-03-19T04:20:18;100702.50;;;10.81;85.04
62051;BME280;48008;51.204;6.766;2023-03-19T04:22:45;100708.47;;;10.83;84.91
62051;BME280;48008;51.204;6.766;2023-03-19T04:25:12;100705.81;;;10.83;85.39
62051;BME280;48008;51.204;6.766;2023-03-19T04:27:39;100706.03;;;10.90;84.17
62051;BME280;48008;51.204;6.766;2023-03-19T04:30:07;100706.34;;;10.87;85.69
62051;BME280;48008;51.204;6.766;2023-03-19T04:32:36;100702.38;;;10.91;85.28
62051;BME280;48008;51.204;6.766;2023-03-19T04:35:03;100715.19;;;10.95;85.62
62051;BME280;48008;51.204;6.766;2023-03-19T04:37:29;100715.88;;;10.98;85.48
62051;BME280;48008;51.204;6.766;2023-03-19T04:39:57;100713.22;;;10.98;85.21
62051;BME280;48008;51.204;6.766;2023-03-19T04:42:25;100718.22;;;11.01;84.05
62051;BME280;48008;51.204;6.766;2023-03-19T04:45:11;100712.91;;;11.01;84.17
62051;BME280;48008;51.204;6.766;2023-03-19T04:47:39;100715.72;;;10.99;83.20
62051;BME280;48008;51.204;6.766;2023-03-19T04:50:06;100729.16;;;11.06;83.91
62051;BME280;48008;51.204;6.766;2023-03-19T04:52:34;100722.88;;;11.07;83.42
62051;BME280;48008;51.204;6.766;2023-03-19T04:55:04;100724.19;;;11.03;83.63
62051;BME280;48008;51.204;6.766;2023-03-19T04:57:42;100728.31;;;10.97;83.76
62051;BME280;48008;51.204;6.766;2023-03-19T05:00:09;100729.59;;;10.93;83.20
62051;BME280;48008;51.204;6.766;2023-03-19T05:02:40;100729.28;;;10.96;83.66
62051;BME280;48008;51.204;6.766;2023-03-19T05:05:09;100727.31;;;10.98;83.87
62051;BME280;48008;51.204;6.766;2023-03-19T05:07:37;100726.84;;;11.03;82.86
62051;BME280;48008;51.204;6.766;2023-03-19T05:10:04;100720.88;;;11.01;83.07
62051;BME280;48008;51.204;6.766;2023-03-19T05:12:33;100728.31;;;10.97;84.58
62051;BME280;48008;51.204;6.766;2023-03-19T05:15:00;100729.25;;;10.88;84.03
62051;BME280;48008;51.204;6.766;2023-03-19T05:17:31;100742.84;;;10.93;84.00
62051;BME280;48008;51.204;6.766;2023-03-19T05:20:19;100743.50;;;10.87;85.43
62051;BME280;48008;51.204;6.766;2023-03-19T05:22:52;100743.78;;;10.84;83.91
62051;BME280;48008;51.204;6.766;2023-03-19T05:25:22;100748.44;;;10.82;85.43
62051;BME280;48008;51.204;6.766;2023-03-19T05:27:48;100752.63;;;10.84;85.64
62051;BME280;48008;51.204;6.766;2023-03-19T05:30:18;100748.59;;;10.80;85.00
62051;BME280;48008;51.204;6.766;2023-03-19T05:33:04;100742.44;;;10.80;85.03
62051;BME280;48008;51.204;6.766;2023-03-19T05:35:35;100739.66;;;10.81;85.77
62051;BME280;48008;51.204;6.766;2023-03-19T05:38:08;100741.47;;;10.81;85.17
62051;BME280;48008;51.204;6.766;2023-03-19T05:40:37;100749.78;;;10.86;84.40
62051;BME280;48008;51.204;6.766;2023-03-19T05:43:27;100745.16;;;10.88;84.54
62051;BME280;48008;51.204;6.766;2023-03-19T05:45:54;100733.03;;;10.85;85.12
62051;BME280;48008;51.204;6.766;2023-03-19T05:48:26;100738.81;;;10.81;86.36
62051;BME280;48008;51.204;6.766;2023-03-19T05:50:53;100753.59;;;10.83;84.89
62051;BME280;48008;51.204;6.766;2023-03-19T05:53:21;100753.50;;;10.75;85.94
62051;BME280;48008;51.204;6.766;2023-03-19T05:56:06;100756.69;;;10.79;85.63
62051;BME280;48008;51.204;6.766;2023-03-19T05:58:43;100760.34;;;10.78;85.81
62051;BME280;48008;51.204;6.766;2023-03-19T06:01:10;100765.69;;;10.86;86.41
62051;BME280;48008;51.204;6.766;2023-03-19T06:03:37;100761.78;;;10.90;85.14
62051;BME280;48008;51.204;6.766;2023-03-19T06:06:07;100771.50;;;10.81;85.63
62051;BME280;48008;51.204;6.766;2023-03-19T06:08:39;100763.53;;;10.81;87.16
62051;BME280;48008;51.204;6.766;2023-03-19T06:11:14;100772.53;;;10.88;87.09
62051;BME280;48008;51.204;6.766;2023-03-19T06:13:44;100768.56;;;10.92;86.68
62051;BME280;48008;51.204;6.766;2023-03-19T06:16:15;100770.78;;;10.97;86.30
62051;BME280;48008;51.204;6.766;2023-03-19T06:18:48;100774.63;;;11.03;86.75
62051;BME280;48008;51.204;6.766;2023-03-19T06:21:16;100778.25;;;11.02;86.19
62051;BME280;48008;51.204;6.766;2023-03-19T06:23:43;100781.59;;;11.04;86.02
62051;BME280;48008;51.204;6.766;2023-03-19T06:26:13;100786.06;;;11.03;85.77
62051;BME280;48008;51.204;6.766;2023-03-19T06:28:46;100795.53;;;11.06;85.86
62051;BME280;48008;51.204;6.766;2023-03-19T06:31:15;100799.03;;;11.06;86.08
62051;BME280;48008;51.204;6.766;2023-03-19T06:33:56;100801.84;;;11.05;86.04
62051;BME280;48008;51.204;6.766;2023-03-19T06:36:29;100797.66;;;11.02;86.71
62051;BME280;48008;51.204;6.766;2023-03-19T06:38:56;100804.13;;;11.00;86.91
62051;BME280;48008;51.204;6.766;2023-03-19T06:41:23;100803.31;;;10.99;86.33
62051;BME280;48008;51.204;6.766;2023-03-19T06:43:52;100803.31;;;10.99;87.02
62051;BME280;48008;51.204;6.766;2023-03-19T06:46:18;100799.66;;;11.00;87.19
62051;BME280;48008;51.204;6.766;2023-03-19T06:48:45;100799.03;;;11.06;87.29
62051;BME280;48008;51.204;6.766;2023-03-19T06:51:12;100800.16;;;11.04;87.59
62051;BME280;48008;51.204;6.766;2023-03-19T06:53:39;100791.75;;;11.08;86.53
62051;BME280;48008;51.204;6.766;2023-03-19T06:56:05;100798.72;;;11.09;86.49
62051;BME280;48008;51.204;6.766;2023-03-19T06:58:32;100801.06;;;11.12;87.13
62051;BME280;48008;51.204;6.766;2023-03-19T07:01:01;100800.75;;;11.16;86.96
62051;BME280;48008;51.204;6.766;2023-03-19T07:03:27;100802.78;;;11.22;86.89
62051;BME280;48008;51.204;6.766;2023-03-19T07:05:54;100797.38;;;11.31;86.86
62051;BME280;48008;51.204;6.766;2023-03-19T07:08:21;100803.69;;;11.39;86.63
62051;BME280;48008;51.204;6.766;2023-03-19T07:10:47;100803.59;;;11.48;85.12
62051;BME280;48008;51.204;6.766;2023-03-19T07:13:14;100806.25;;;11.48;85.23
62051;BME280;48008;51.204;6.766;2023-03-19T07:15:41;100814.22;;;11.48;84.81
62051;BME280;48008;51.204;6.766;2023-03-19T07:18:08;100809.59;;;11.50;85.18
62051;BME280;48008;51.204;6.766;2023-03-19T07:20:34;100818.28;;;11.61;85.78
62051;BME280;48008;51.204;6.766;2023-03-19T07:23:02;100825.75;;;11.65;85.72
62051;BME280;48008;51.204;6.766;2023-03-19T07:25:29;100827.59;;;11.65;85.52
62051;BME280;48008;51.204;6.766;2023-03-19T07:27:56;100825.28;;;11.70;85.21
62051;BME280;48008;51.204;6.766;2023-03-19T07:30:23;100830.97;;;11.75;84.94
62051;BME280;48008;51.204;6.766;2023-03-19T07:32:49;100833.94;;;11.80;83.25
62051;BME280;48008;51.204;6.766;2023-03-19T07:35:16;100840.28;;;11.79;83.76
62051;BME280;48008;51.204;6.766;2023-03-19T07:37:43;100839.41;;;11.79;84.07
62051;BME280;48008;51.204;6.766;2023-03-19T07:40:10;100847.69;;;11.67;83.63
62051;BME280;48008;51.204;6.766;2023-03-19T07:42:36;100845.31;;;11.56;84.06
62051;BME280;48008;51.204;6.766;2023-03-19T07:45:04;100849.63;;;11.57;84.30
62051;BME280;48008;51.204;6.766;2023-03-19T07:47:31;100854.97;;;11.65;84.45
62051;BME280;48008;51.204;6.766;2023-03-19T07:49:58;100850.19;;;11.69;84.51
62051;BME280;48008;51.204;6.766;2023-03-19T07:52:25;100853.22;;;11.74;84.06
62051;BME280;48008;51.204;6.766;2023-03-19T07:54:52;100860.53;;;11.80;83.37
62051;BME280;48008;51.204;6.766;2023-03-19T07:57:18;100857.19;;;11.70;83.96
62051;BME280;48008;51.204;6.766;2023-03-19T07:59:46;100854.84;;;11.67;83.31
62051;BME280;48008;51.204;6.766;2023-03-19T08:02:13;100857.63;;;11.65;83.05
62051;BME280;48008;51.204;6.766;2023-03-19T08:04:39;100858.81;;;11.63;84.55
62051;BME280;48008;51.204;6.766;2023-03-19T08:07:07;100860.97;;;11.67;84.46
62051;BME280;48008;51.204;6.766;2023-03-19T08:09:36;100863.63;;;11.67;84.40
62051;BME280;48008;51.204;6.766;2023-03-19T08:12:03;100861.19;;;11.74;83.32
62051;BME280;48008;51.204;6.766;2023-03-19T08:14:29;100859.84;;;11.70;82.99
62051;BME280;48008;51.204;6.766;2023-03-19T08:16:56;100861.94;;;11.93;82.97
62051;BME280;48008;51.204;6.766;2023-03-19T08:19:23;100857.97;;;11.97;83.04
62051;BME280;48008;51.204;6.766;2023-03-19T08:21:50;100869.38;;;12.15;80.67
62051;BME280;48008;51.204;6.766;2023-03-19T08:24:17;100866.91;;;12.30;79.78
62051;BME280;48008;51.204;6.766;2023-03-19T08:26:45;100869.06;;;12.35;81.49
62051;BME280;48008;51.204;6.766;2023-03-19T08:29:12;100864.75;;;12.42;80.18
62051;BME280;48008;51.204;6.766;2023-03-19T08:31:38;100865.94;;;12.39;80.26
62051;BME280;48008;51.204;6.766;2023-03-19T08:34:07;100871.59;;;12.53;80.20
62051;BME280;48008;51.204;6.766;2023-03-19T08:36:35;100863.97;;;12.58;80.42
62051;BME280;48008;51.204;6.766;2023-03-19T08:39:02;100869.47;;;12.64;79.78
62051;BME280;48008;51.204;6.766;2023-03-19T08:41:29;100873.81;;;12.82;79.71
62051;BME280;48008;51.204;6.766;2023-03-19T08:43:57;100870.31;;;12.98;79.48
62051;BME280;48008;51.204;6.766;2023-03-19T08:46:23;100877.97;;;13.01;78.53
62051;BME280;48008;51.204;6.766;2023-03-19T08:48:52;100880.66;;;13.01;77.91
62051;BME280;48008;51.204;6.766;2023-03-19T08:51:19;100880.28;;;13.04;77.97
62051;BME280;48008;51.204;6.766;2023-03-19T08:53:46;100885.78;;;12.94;78.52
62051;BME280;48008;51.204;6.766;2023-03-19T08:56:12;100891.09;;;12.86;77.88
62051;BME280;48008;51.204;6.766;2023-03-19T08:58:39;100878.97;;;12.92;79.30
62051;BME280;48008;51.204;6.766;2023-03-19T09:01:09;100882.78;;;12.89;79.15
62051;BME280;48008;51.204;6.766;2023-03-19T09:03:37;100886.09;;;12.75;78.83
62051;BME280;48008;51.204;6.766;2023-03-19T09:06:07;100883.13;;;12.78;78.92
62051;BME280;48008;51.204;6.766;2023-03-19T09:08:35;100880.97;;;12.81;78.50
62051;BME280;48008;51.204;6.766;2023-03-19T09:11:03;100877.81;;;12.94;78.33
62051;BME280;48008;51.204;6.766;2023-03-19T09:13:31;100882.28;;;13.02;77.90
62051;BME280;48008;51.204;6.766;2023-03-19T09:15:58;100882.97;;;13.12;77.41
62051;BME280;48008;51.204;6.766;2023-03-19T09:18:24;100887.44;;;13.20;77.99
62051;BME280;48008;51.204;6.766;2023-03-19T09:20:52;100889.09;;;13.29;78.00
62051;BME280;48008;51.204;6.766;2023-03-19T09:23:20;100890.13;;;13.28;77.17
62051;BME280;48008;51.204;6.766;2023-03-19T09:25:47;100896.13;;;13.30;76.30
62051;BME280;48008;51.204;6.766;2023-03-19T09:28:14;100896.78;;;13.40;76.67
62051;BME280;48008;51.204;6.766;2023-03-19T09:30:41;100896.97;;;13.31;76.40
62051;BME280;48008;51.204;6.766;2023-03-19T09:33:10;100899.44;;;13.49;75.92
62051;BME280;48008;51.204;6.766;2023-03-19T09:35:37;100900.88;;;13.68;75.75
62051;BME280;48008;51.204;6.766;2023-03-19T09:38:05;100906.66;;;14.35;72.68
62051;BME280;48008;51.204;6.766;2023-03-19T09:40:36;100911.34;;;14.65;71.28
62051;BME280;48008;51.204;6.766;2023-03-19T09:44:19;100917.63;;;15.71;66.93
62051;BME280;48008;51.204;6.766;2023-03-19T09:46:08;100909.16;;;14.91;69.21
62051;BME280;48008;51.204;6.766;2023-03-19T09:48:46;100904.00;;;14.67;71.33
62051;BME280;48008;51.204;6.766;2023-03-19T09:51:20;100902.84;;;14.30;71.83
62051;BME280;48008;51.204;6.766;2023-03-19T09:53:57;100910.56;;;14.16;73.56
62051;BME280;48008;51.204;6.766;2023-03-19T09:56:26;100899.50;;;14.28;73.05
62051;BME280;48008;51.204;6.766;2023-03-19T09:58:53;100900.28;;;14.36;72.84
62051;BME280;48008;51.204;6.766;2023-03-19T10:01:25;100900.44;;;14.43;71.84
62051;BME280;48008;51.204;6.766;2023-03-19T10:04:17;100892.28;;;14.36;72.44
62051;BME280;48008;51.204;6.766;2023-03-19T10:06:45;100903.63;;;14.38;72.54
62051;BME280;48008;51.204;6.766;2023-03-19T10:12:07;100903.09;;;14.74;70.02
62051;BME280;48008;51.204;6.766;2023-03-19T10:14:54;100903.53;;;14.63;72.01
62051;BME280;48008;51.204;6.766;2023-03-19T10:17:36;100914.13;;;14.40;71.14
62051;BME280;48008;51.204;6.766;2023-03-19T10:20:11;100908.31;;;14.36;72.24
62051;BME280;48008;51.204;6.766;2023-03-19T10:22:44;100905.31;;;14.31;72.12
62051;BME280;48008;51.204;6.766;2023-03-19T10:25:19;100911.03;;;14.28;72.78
62051;BME280;48008;51.204;6.766;2023-03-19T10:27:55;100909.66;;;14.32;71.69
62051;BME280;48008;51.204;6.766;2023-03-19T10:30:22;100911.78;;;14.45;71.79
62051;BME280;48008;51.204;6.766;2023-03-19T10:32:53;100914.50;;;14.68;69.78
62051;BME280;48008;51.204;6.766;2023-03-19T10:35:38;100920.44;;;14.47;70.64
62051;BME280;48008;51.204;6.766;2023-03-19T10:38:18;100920.66;;;14.37;70.24
62051;BME280;48008;51.204;6.766;2023-03-19T10:40:55;100919.38;;;14.25;70.68
62051;BME280;48008;51.204;6.766;2023-03-19T10:43:30;100924.88;;;14.24;70.40
62051;BME280;48008;51.204;6.766;2023-03-19T10:45:57;100927.59;;;14.15;71.60
62051;BME280;48008;51.204;6.766;2023-03-19T10:48:25;100939.31;;;13.98;72.67
62051;BME280;48008;51.204;6.766;2023-03-19T10:50:59;100930.66;;;13.88;73.21
62051;BME280;48008;51.204;6.766;2023-03-19T10:53:33;100935.66;;;13.91;73.69
62051;BME280;48008;51.204;6.766;2023-03-19T10:56:05;100932.84;;;13.84;73.74
62051;BME280;48008;51.204;6.766;2023-03-19T10:58:35;100933.69;;;13.76;73.86
62051;BME280;48008;51.204;6.766;2023-03-19T11:01:11;100940.06;;;13.75;74.51
62051;BME280;48008;51.204;6.766;2023-03-19T11:03:48;100936.69;;;13.73;74.73
62051;BME280;48008;51.204;6.766;2023-03-19T11:06:30;100927.56;;;13.51;77.26
62051;BME280;48008;51.204;6.766;2023-03-19T11:09:11;100936.94;;;13.55;77.33
62051;BME280;48008;51.204;6.766;2023-03-19T11:11:48;100941.75;;;13.52;78.75
62051;BME280;48008;51.204;6.766;2023-03-19T11:14:20;100941.09;;;13.33;79.46
62051;BME280;48008;51.204;6.766;2023-03-19T11:17:01;100943.94;;;13.32;79.61
62051;BME280;48008;51.204;6.766;2023-03-19T11:19:33;100939.72;;;13.29;80.21
62051;BME280;48008;51.204;6.766;2023-03-19T11:24:38;100932.75;;;13.28;80.25
62051;BME280;48008;51.204;6.766;2023-03-19T11:27:06;100946.59;;;13.32;79.80
62051;BME280;48008;51.204;6.766;2023-03-19T11:29:39;100943.09;;;13.31;80.00
62051;BME280;48008;51.204;6.766;2023-03-19T11:35:36;100942.44;;;13.37;79.21
62051;BME280;48008;51.204;6.766;2023-03-19T11:37:56;100939.59;;;13.39;79.11
62051;BME280;48008;51.204;6.766;2023-03-19T11:40:44;100940.41;;;13.23;79.80
62051;BME280;48008;51.204;6.766;2023-03-19T11:46:04;100933.28;;;13.32;81.68
62051;BME280;48008;51.204;6.766;2023-03-19T11:58:21;100951.06;;;13.23;84.22
62051;BME280;48008;51.204;6.766;2023-03-19T12:01:06;100954.88;;;12.96;83.65
62051;BME280;48008;51.204;6.766;2023-03-19T12:09:32;100957.13;;;12.66;86.86
62051;BME280;48008;51.204;6.766;2023-03-19T12:15:30;100936.53;;;12.76;88.95
62051;BME280;48008;51.204;6.766;2023-03-19T12:21:27;100942.34;;;12.72;87.75
62051;BME280;48008;51.204;6.766;2023-03-19T12:24:05;100940.31;;;12.57;86.87
62051;BME280;48008;51.204;6.766;2023-03-19T12:30:24;100938.38;;;12.92;90.57
62051;BME280;48008;51.204;6.766;2023-03-19T12:32:50;100936.41;;;13.02;87.60
62051;BME280;48008;51.204;6.766;2023-03-19T12:35:30;100938.91;;;13.12;85.93
62051;BME280;48008;51.204;6.766;2023-03-19T12:38:07;100946.09;;;13.36;85.62
62051;BME280;48008;51.204;6.766;2023-03-19T12:40:42;100941.53;;;13.78;84.94
62051;BME280;48008;51.204;6.766;2023-03-19T12:43:20;100948.03;;;13.83;85.61
62051;BME280;48008;51.204;6.766;2023-03-19T12:45:52;100946.88;;;13.86;85.12
62051;BME280;48008;51.204;6.766;2023-03-19T12:48:27;100947.81;;;13.93;85.82
62051;BME280;48008;51.204;6.766;2023-03-19T12:51:00;100938.66;;;13.96;84.98
62051;BME280;48008;51.204;6.766;2023-03-19T12:53:39;100949.66;;;14.01;84.27
62051;BME280;48008;51.204;6.766;2023-03-19T12:56:16;100947.47;;;14.05;84.68
62051;BME280;48008;51.204;6.766;2023-03-19T12:58:54;100947.47;;;13.96;86.49
62051;BME280;48008;51.204;6.766;2023-03-19T13:01:33;100941.81;;;13.99;84.87
62051;BME280;48008;51.204;6.766;2023-03-19T13:04:12;100945.78;;;14.12;84.02
62051;BME280;48008;51.204;6.766;2023-03-19T13:06:46;100946.75;;;14.19;82.48
62051;BME280;48008;51.204;6.766;2023-03-19T13:09:36;100938.88;;;14.26;82.96
62051;BME280;48008;51.204;6.766;2023-03-19T13:12:09;100947.84;;;14.33;82.07
62051;BME280;48008;51.204;6.766;2023-03-19T13:14:50;100940.16;;;14.38;80.43
62051;BME280;48008;51.204;6.766;2023-03-19T13:17:25;100940.06;;;14.63;79.74
62051;BME280;48008;51.204;6.766;2023-03-19T13:19:57;100931.25;;;14.85;78.62
62051;BME280;48008;51.204;6.766;2023-03-19T13:22:29;100935.59;;;14.86;78.18
62051;BME280;48008;51.204;6.766;2023-03-19T13:24:57;100935.66;;;15.01;76.75
62051;BME280;48008;51.204;6.766;2023-03-19T13:27:32;100932.38;;;15.14;76.52
62051;BME280;48008;51.204;6.766;2023-03-19T13:32:51;100940.94;;;15.62;76.50
62051;BME280;48008;51.204;6.766;2023-03-19T13:38:03;100940.47;;;15.97;74.72
62051;BME280;48008;51.204;6.766;2023-03-19T13:40:45;100941.66;;;16.09;73.59
62051;BME280;48008;51.204;6.766;2023-03-19T13:51:23;100944.47;;;20.05;55.34
62051;BME280;48008;51.204;6.766;2023-03-19T13:53:57;100932.53;;;19.21;58.83
62051;BME280;48008;51.204;6.766;2023-03-19T13:56:31;100952.56;;;21.96;50.63
62051;BME280;48008;51.204;6.766;2023-03-19T13:59:34;100945.25;;;21.59;51.59
62051;BME280;48008;51.204;6.766;2023-03-19T14:02:42;100935.34;;;19.99;57.52
62051;BME280;48008;51.204;6.766;2023-03-19T14:04:57;100935.63;;;19.04;60.70